createdAt,value
2023-03-18T00:00:01.150Z,29.90
2023-03-18T00:03:50.654Z,25.10
2023-03-18T00:07:19.213Z,31.80
2023-03-18T00:10:46.974Z,28.10
2023-03-18T00:14:25.744Z,26.60
2023-03-18T00:17:55.647Z,26.70
2023-03-18T00:21:24.847Z,25.60
2023-03-18T00:24:53.671Z,24.30
2023-03-18T00:28:21.195Z,26.60
2023-03-18T00:31:49.423Z,25.00
2023-03-18T00:35:17.454Z,26.40
2023-03-18T00:38:49.469Z,26.80
2023-03-18T00:42:17.777Z,27.00
2023-03-18T00:45:45.641Z,28.80
2023-03-18T00:49:12.797Z,28.20
2023-03-18T00:52:40.727Z,27.00
2023-03-18T00:56:09.110Z,27.10
2023-03-18T00:59:37.091Z,28.70
2023-03-18T01:03:09.454Z,25.20
2023-03-18T01:06:39.584Z,23.40
2023-03-18T01:10:10.885Z,26.30
2023-03-18T01:13:39.281Z,22.30
2023-03-18T01:17:07.481Z,24.80
2023-03-18T01:20:35.638Z,21.60
2023-03-18T01:24:04.761Z,22.90
2023-03-18T01:27:33.811Z,26.20
2023-03-18T01:31:03.963Z,26.20
2023-03-18T01:34:31.200Z,22.50
2023-03-18T01:41:27.476Z,24.00
2023-03-18T01:45:20.058Z,21.50
2023-03-18T01:48:48.911Z,22.60
2023-03-18T01:52:20.449Z,24.90
2023-03-18T01:55:52.458Z,21.10
2023-03-18T01:59:23.357Z,25.00
2023-03-18T02:02:53.952Z,23.00
2023-03-18T02:06:21.330Z,26.40
2023-03-18T02:10:00.798Z,23.30
2023-03-18T02:13:28.948Z,26.00
2023-03-18T02:17:02.347Z,23.30
2023-03-18T02:20:42.577Z,22.80
2023-03-18T02:24:24.483Z,21.00
2023-03-18T02:27:56.433Z,25.70
2023-03-18T02:31:27.554Z,22.70
2023-03-18T02:34:55.879Z,26.10
2023-03-18T02:38:25.215Z,25.10
2023-03-18T02:41:55.573Z,23.60
2023-03-18T02:45:37.995Z,23.10
2023-03-18T02:49:12.373Z,22.00
2023-03-18T02:52:40.113Z,26.70
2023-03-18T02:56:09.514Z,22.20
2023-03-18T02:59:36.878Z,22.30
2023-03-18T03:03:08.467Z,22.70
2023-03-18T03:06:38.551Z,25.00
2023-03-18T03:10:08.612Z,24.80
2023-03-18T03:13:36.149Z,23.20
2023-03-18T03:17:04.543Z,23.30
2023-03-18T03:20:33.891Z,23.30
2023-03-18T03:24:02.047Z,24.90
2023-03-18T03:27:29.647Z,21.00
2023-03-18T03:30:59.589Z,24.90
2023-03-18T03:34:27.690Z,22.00
2023-03-18T03:37:55.187Z,18.60
2023-03-18T03:41:23.415Z,22.30
2023-03-18T03:44:51.374Z,20.10
2023-03-18T03:48:18.390Z,20.20
2023-03-18T03:51:45.830Z,23.60
2023-03-18T03:55:17.705Z,26.90
2023-03-18T03:58:45.074Z,19.80
2023-03-18T04:02:12.670Z,24.70
2023-03-18T04:05:40.190Z,23.20
2023-03-18T04:09:07.250Z,23.90
2023-03-18T04:12:34.852Z,23.40
2023-03-18T04:16:02.639Z,23.80
2023-03-18T04:19:33.645Z,25.30
2023-03-18T04:23:08.440Z,26.90
2023-03-18T04:26:35.721Z,25.50
2023-03-18T04:30:04.341Z,25.70
2023-03-18T04:33:47.682Z,21.20
2023-03-18T04:37:20.248Z,20.90
2023-03-18T04:40:49.451Z,21.30
2023-03-18T04:44:18.087Z,21.00
2023-03-18T04:51:17.074Z,25.30
2023-03-18T04:54:44.859Z,27.00
2023-03-18T04:58:12.552Z,27.10
2023-03-18T05:01:43.187Z,24.70
2023-03-18T05:05:12.086Z,25.40
2023-03-18T05:08:43.858Z,30.80
2023-03-18T05:12:16.127Z,26.50
2023-03-18T05:15:43.092Z,22.70
2023-03-18T05:19:09.950Z,22.80
2023-03-18T05:22:39.699Z,22.70
2023-03-18T05:26:13.249Z,21.80
2023-03-18T05:29:42.260Z,22.90
2023-03-18T05:33:14.143Z,23.10
2023-03-18T05:36:52.332Z,19.20
2023-03-18T05:40:19.986Z,22.20
2023-03-18T05:43:58.789Z,22.40
2023-03-18T05:47:26.158Z,19.40
2023-03-18T05:51:01.617Z,21.90
2023-03-18T05:54:30.456Z,22.20
2023-03-18T05:57:57.856Z,20.90
2023-03-18T06:01:26.954Z,22.50
2023-03-18T06:04:54.880Z,21.40
2023-03-18T06:08:22.573Z,19.90
2023-03-18T06:11:49.573Z,27.30
2023-03-18T06:15:17.521Z,19.70
2023-03-18T06:18:45.294Z,20.40
2023-03-18T06:22:15.622Z,23.20
2023-03-18T06:25:43.457Z,19.70
2023-03-18T06:29:11.017Z,20.30
2023-03-18T06:32:38.640Z,22.60
2023-03-18T06:36:06.329Z,20.40
2023-03-18T06:39:32.988Z,20.80
2023-03-18T06:43:03.448Z,23.60
2023-03-18T06:50:02.411Z,24.70
2023-03-18T06:53:31.918Z,19.60
2023-03-18T06:56:59.023Z,18.70
2023-03-18T07:00:27.186Z,20.70
2023-03-18T07:03:54.286Z,16.50
2023-03-18T07:07:22.546Z,16.10
2023-03-18T07:10:50.356Z,18.70
2023-03-18T07:14:18.656Z,22.10
2023-03-18T07:17:46.927Z,21.00
2023-03-18T07:21:14.076Z,22.30
2023-03-18T07:24:41.033Z,26.80
2023-03-18T07:28:07.798Z,22.50
2023-03-18T07:31:34.444Z,21.30
2023-03-18T07:35:01.026Z,20.60
2023-03-18T07:38:27.830Z,22.50
2023-03-18T07:41:54.515Z,19.20
2023-03-18T07:45:23.374Z,17.60
2023-03-18T07:48:50.704Z,16.80
2023-03-18T07:52:18.330Z,20.20
2023-03-18T07:55:46.489Z,21.90
2023-03-18T07:59:12.965Z,21.00
2023-03-18T08:02:40.354Z,19.70
2023-03-18T08:06:08.306Z,23.60
2023-03-18T08:09:35.049Z,28.90
2023-03-18T08:13:01.632Z,22.70
2023-03-18T08:16:31.399Z,22.20
2023-03-18T08:19:58.638Z,21.30
2023-03-18T08:23:26.058Z,20.10
2023-03-18T08:26:52.721Z,20.70
2023-03-18T08:30:20.103Z,23.80
2023-03-18T08:33:49.675Z,19.40
2023-03-18T08:37:16.369Z,18.40
2023-03-18T08:40:46.577Z,19.90
2023-03-18T08:44:13.384Z,19.70
2023-03-18T08:47:40.072Z,17.50
2023-03-18T08:51:09.501Z,20.30
2023-03-18T08:54:38.827Z,18.50
2023-03-18T08:58:05.912Z,22.20
2023-03-18T09:01:33.240Z,22.90
2023-03-18T09:05:00.063Z,17.70
2023-03-18T09:08:31.548Z,18.80
2023-03-18T09:11:58.206Z,20.30
2023-03-18T09:15:27.662Z,21.80
2023-03-18T09:18:54.440Z,22.00
2023-03-18T09:22:22.036Z,18.60
2023-03-18T09:25:50.505Z,21.30
2023-03-18T09:29:17.456Z,17.20
2023-03-18T09:32:44.962Z,22.00
2023-03-18T09:36:14.124Z,19.50
2023-03-18T09:39:44.984Z,20.50
2023-03-18T09:43:30.400Z,29.70
2023-03-18T09:47:25.754Z,21.10
2023-03-18T09:51:04.347Z,20.60
2023-03-18T09:54:39.555Z,25.80
2023-03-18T09:58:17.503Z,21.00
2023-03-18T10:01:47.941Z,20.70
2023-03-18T10:05:19.811Z,25.50
2023-03-18T10:08:59.970Z,33.30
2023-03-18T10:12:36.062Z,27.30
2023-03-18T10:16:09.673Z,17.30
2023-03-18T10:19:38.792Z,17.80
2023-03-18T10:23:15.218Z,19.30
2023-03-18T10:26:49.078Z,19.30
2023-03-18T10:30:32.778Z,17.20
2023-03-18T10:37:36.529Z,22.20
2023-03-18T10:41:10.804Z,20.50
2023-03-18T10:44:43.027Z,19.50
2023-03-18T10:48:16.866Z,22.50
2023-03-18T10:51:52.743Z,17.60
2023-03-18T10:55:23.082Z,19.70
2023-03-18T10:58:51.167Z,21.80
2023-03-18T11:02:23.035Z,18.50
2023-03-18T11:05:52.531Z,23.90
2023-03-18T11:09:22.944Z,22.80
2023-03-18T11:12:50.897Z,24.20
2023-03-18T11:16:30.184Z,24.20
2023-03-18T11:20:08.324Z,20.80
2023-03-18T11:23:49.291Z,24.90
2023-03-18T11:27:51.369Z,20.00
2023-03-18T11:31:25.259Z,22.90
2023-03-18T11:38:28.926Z,20.80
2023-03-18T11:41:57.965Z,22.70
2023-03-18T11:45:48.981Z,20.30
2023-03-18T11:49:19.661Z,29.00
2023-03-18T11:52:53.302Z,25.10
2023-03-18T11:56:31.028Z,23.90
2023-03-18T12:00:17.848Z,24.10
2023-03-18T12:04:08.103Z,28.10
2023-03-18T12:07:56.648Z,25.10
2023-03-18T12:11:33.327Z,21.50
2023-03-18T12:15:11.904Z,20.90
2023-03-18T12:18:59.377Z,24.60
2023-03-18T12:23:00.404Z,23.90
2023-03-18T12:26:36.443Z,24.40
2023-03-18T12:30:38.522Z,24.50
2023-03-18T12:34:06.351Z,25.40
2023-03-18T12:37:44.856Z,21.80
2023-03-18T12:41:17.941Z,26.50
2023-03-18T12:44:58.035Z,26.90
2023-03-18T12:48:44.933Z,23.60
2023-03-18T12:52:19.647Z,24.20
2023-03-18T12:55:49.466Z,24.90
2023-03-18T12:59:25.920Z,29.20
2023-03-18T13:03:00.248Z,30.90
2023-03-18T13:06:32.309Z,27.50
2023-03-18T13:10:04.561Z,26.20
2023-03-18T13:13:34.791Z,25.20
2023-03-18T13:17:02.793Z,29.20
2023-03-18T13:20:34.733Z,26.80
2023-03-18T13:24:32.388Z,26.80
2023-03-18T13:28:19.454Z,20.10
2023-03-18T13:31:56.331Z,25.10
2023-03-18T13:35:47.409Z,27.50
2023-03-18T13:39:37.349Z,23.70
2023-03-18T13:43:04.709Z,29.10
2023-03-18T13:46:35.200Z,25.40
2023-03-18T13:50:05.840Z,24.30
2023-03-18T13:53:35.809Z,33.50
2023-03-18T13:57:20.656Z,25.00
2023-03-18T14:01:09.317Z,28.50
2023-03-18T14:04:49.508Z,26.80
2023-03-18T14:08:38.625Z,28.70
2023-03-18T14:12:39.205Z,26.00
2023-03-18T14:16:12.923Z,27.70
2023-03-18T14:19:42.560Z,21.00
2023-03-18T14:23:39.641Z,21.40
2023-03-18T14:27:21.978Z,24.50
2023-03-18T14:30:56.293Z,24.60
2023-03-18T14:34:35.472Z,23.10
2023-03-18T14:38:12.842Z,21.80
2023-03-18T14:41:43.635Z,25.10
2023-03-18T14:45:21.346Z,27.60
2023-03-18T14:48:52.607Z,26.60
2023-03-18T14:52:30.064Z,24.70
2023-03-18T14:55:57.432Z,23.40
2023-03-18T14:59:27.279Z,24.30
2023-03-18T15:03:05.774Z,23.10
2023-03-18T15:06:33.929Z,20.20
2023-03-18T15:10:02.870Z,23.50
2023-03-18T15:13:30.736Z,22.60
2023-03-18T15:17:01.830Z,20.10
2023-03-18T15:20:29.966Z,21.10
2023-03-18T15:24:00.183Z,23.50
2023-03-18T15:27:31.242Z,19.70
2023-03-18T15:31:02.865Z,19.00
2023-03-18T15:34:36.315Z,22.30
2023-03-18T15:38:14.851Z,21.60
2023-03-18T15:41:43.719Z,22.40
2023-03-18T15:45:19.703Z,24.00
2023-03-18T15:48:54.985Z,18.80
2023-03-18T15:52:29.514Z,23.00
2023-03-18T15:55:59.158Z,30.80
2023-03-18T15:59:33.496Z,28.20
2023-03-18T16:03:04.206Z,27.40
2023-03-18T16:06:34.683Z,32.30
2023-03-18T16:10:01.899Z,36.70
2023-03-18T16:13:34.757Z,34.90
2023-03-18T16:17:02.122Z,37.90
2023-03-18T16:20:31.905Z,41.60
2023-03-18T16:23:59.972Z,53.90
2023-03-18T16:27:34.952Z,53.80
2023-03-18T16:31:02.048Z,55.00
2023-03-18T16:34:29.792Z,37.00
2023-03-18T16:37:57.724Z,52.20
2023-03-18T16:41:25.940Z,49.50
2023-03-18T16:44:53.746Z,41.40
2023-03-18T16:48:23.600Z,40.30
2023-03-18T16:51:54.777Z,32.80
2023-03-18T16:55:24.244Z,38.10
2023-03-18T16:58:52.824Z,58.40
2023-03-18T17:02:32.987Z,59.50
2023-03-18T17:06:00.521Z,71.90
2023-03-18T17:09:28.431Z,78.00
2023-03-18T17:12:59.786Z,97.20
2023-03-18T17:16:31.024Z,96.40
2023-03-18T17:20:00.088Z,50.80
2023-03-18T17:23:30.631Z,39.70
2023-03-18T17:26:58.958Z,44.50
2023-03-18T17:30:30.274Z,71.20
2023-03-18T17:34:03.692Z,59.40
2023-03-18T17:37:33.029Z,52.60
2023-03-18T17:41:03.305Z,56.70
2023-03-18T17:44:32.467Z,58.30
2023-03-18T17:48:16.300Z,66.60
2023-03-18T17:51:48.884Z,59.10
2023-03-18T17:55:25.370Z,54.80
2023-03-18T17:59:00.221Z,43.90
2023-03-18T18:02:32.947Z,47.40
2023-03-18T18:06:05.316Z,41.40
2023-03-18T18:09:34.325Z,33.50
2023-03-18T18:13:03.133Z,40.20
2023-03-18T18:16:31.490Z,35.00
2023-03-18T18:20:01.374Z,34.20
2023-03-18T18:23:36.155Z,36.80
2023-03-18T18:27:07.580Z,32.20
2023-03-18T18:30:35.702Z,37.40
2023-03-18T18:34:02.691Z,40.60
2023-03-18T18:37:33.912Z,39.30
2023-03-18T18:41:03.752Z,36.10
2023-03-18T18:44:32.715Z,35.10
2023-03-18T18:48:00.257Z,35.20
2023-03-18T18:51:28.045Z,39.90
2023-03-18T18:54:58.402Z,36.40
2023-03-18T18:58:29.133Z,35.90
2023-03-18T19:02:01.208Z,32.00
2023-03-18T19:05:31.052Z,32.10
2023-03-18T19:08:59.872Z,45.20
2023-03-18T19:12:34.896Z,33.80
2023-03-18T19:16:04.842Z,33.50
2023-03-18T19:19:34.855Z,35.20
2023-03-18T19:23:03.688Z,31.80
2023-03-18T19:26:32.217Z,37.10
2023-03-18T19:30:01.687Z,36.40
2023-03-18T19:33:30.128Z,39.80
2023-03-18T19:36:58.797Z,41.40
2023-03-18T19:40:31.634Z,37.50
2023-03-18T19:44:04.363Z,43.60
2023-03-18T19:47:33.498Z,42.60
2023-03-18T19:51:00.344Z,42.10
2023-03-18T19:54:33.009Z,38.40
2023-03-18T19:58:01.359Z,40.10
2023-03-18T20:01:30.979Z,41.20
2023-03-18T20:05:00.258Z,50.90
2023-03-18T20:08:29.236Z,50.00
2023-03-18T20:12:05.974Z,56.00
2023-03-18T20:15:34.125Z,62.10
2023-03-18T20:19:02.132Z,68.10
2023-03-18T20:22:36.578Z,69.30
2023-03-18T20:26:04.061Z,77.30
2023-03-18T20:29:33.559Z,77.50
2023-03-18T20:33:07.430Z,78.90
2023-03-18T20:36:36.037Z,84.60
2023-03-18T20:40:07.395Z,81.00
2023-03-18T20:43:35.003Z,76.10
2023-03-18T20:47:02.254Z,79.50
2023-03-18T20:50:31.512Z,63.90
2023-03-18T20:54:04.704Z,71.70
2023-03-18T20:57:36.079Z,63.80
2023-03-18T21:01:06.022Z,66.20
2023-03-18T21:04:34.993Z,61.80
2023-03-18T21:08:02.367Z,67.60
2023-03-18T21:11:33.362Z,61.90
2023-03-18T21:15:00.732Z,59.60
2023-03-18T21:18:29.377Z,56.10
2023-03-18T21:21:56.633Z,60.50
2023-03-18T21:25:27.515Z,55.60
2023-03-18T21:28:54.781Z,49.60
2023-03-18T21:32:31.847Z,53.20
2023-03-18T21:35:59.490Z,50.30
2023-03-18T21:39:26.874Z,49.90
2023-03-18T21:42:56.001Z,49.70
2023-03-18T21:46:27.353Z,53.90
2023-03-18T21:49:53.896Z,51.90
2023-03-18T21:53:27.405Z,46.10
2023-03-18T21:56:56.909Z,54.30
2023-03-18T22:00:25.418Z,46.30
2023-03-18T22:03:53.974Z,46.50
2023-03-18T22:07:23.159Z,49.80
2023-03-18T22:10:51.276Z,52.50
2023-03-18T22:14:18.442Z,49.90
2023-03-18T22:17:47.990Z,48.40
2023-03-18T22:21:20.547Z,48.70
2023-03-18T22:24:48.246Z,48.50
2023-03-18T22:28:15.812Z,50.60
2023-03-18T22:31:43.417Z,46.50
2023-03-18T22:35:17.286Z,48.30
2023-03-18T22:38:46.892Z,51.80
2023-03-18T22:42:19.492Z,45.90
2023-03-18T22:49:13.055Z,44.00
2023-03-18T22:52:40.753Z,49.20
2023-03-18T22:56:15.684Z,45.20
2023-03-18T22:59:42.759Z,47.00
2023-03-18T23:03:15.142Z,44.50
2023-03-18T23:06:51.290Z,50.40
2023-03-18T23:10:19.484Z,44.90
2023-03-18T23:13:51.064Z,48.50
2023-03-18T23:17:19.940Z,48.20
2023-03-18T23:20:49.063Z,41.30
2023-03-18T23:24:16.270Z,44.70
2023-03-18T23:27:46.292Z,45.40
2023-03-18T23:31:15.790Z,52.10
2023-03-18T23:34:43.359Z,46.80
2023-03-18T23:38:10.243Z,45.40
2023-03-18T23:41:37.876Z,52.50
2023-03-18T23:45:05.452Z,56.20
2023-03-18T23:48:33.048Z,56.40
2023-03-18T23:52:00.513Z,55.30
2023-03-18T23:55:35.447Z,50.80
2023-03-18T23:59:03.759Z,51.70
